sensor_id;sensor_type;location;lat;lon;timestamp;pressure;altitude;pressure_sealevel;temperature;humidity
56719;BME280;42597;40.636;0.278;2023-05-14T00:01:34;97265.78;;;18.13;47.96
56719;BME280;42597;40.636;0.278;2023-05-14T00:04:01;97243.09;;;18.31;46.65
56719;BME280;42597;40.636;0.278;2023-05-14T00:06:26;97254.09;;;17.77;45.48
56719;BME280;42597;40.636;0.278;2023-05-14T00:08:52;97244.69;;;18.17;47.11
56719;BME280;42597;40.636;0.278;2023-05-14T00:11:17;97251.34;;;17.88;44.66
56719;BME280;42597;40.636;0.278;2023-05-14T00:13:43;97236.06;;;17.51;46.00
56719;BME280;42597;40.636;0.278;2023-05-14T00:16:08;97248.56;;;17.45;45.13
56719;BME280;42597;40.636;0.278;2023-05-14T00:18:34;97229.72;;;17.04;45.90
56719;BME280;42597;40.636;0.278;2023-05-14T00:20:59;97214.25;;;17.65;46.10
56719;BME280;42597;40.636;0.278;2023-05-14T00:23:25;97232.53;;;17.36;46.24
56719;BME280;42597;40.636;0.278;2023-05-14T00:25:51;97228.69;;;17.98;45.53
56719;BME280;42597;40.636;0.278;2023-05-14T00:28:16;97212.50;;;18.68;46.76
56719;BME280;42597;40.636;0.278;2023-05-14T00:30:42;97209.53;;;17.55;47.02
56719;BME280;42597;40.636;0.278;2023-05-14T00:33:07;97211.50;;;17.80;45.83
56719;BME280;42597;40.636;0.278;2023-05-14T00:35:33;97216.94;;;17.51;45.27
56719;BME280;42597;40.636;0.278;2023-05-14T00:38:00;97209.19;;;17.78;46.60
56719;BME280;42597;40.636;0.278;2023-05-14T00:40:27;97201.31;;;18.12;46.78
56719;BME280;42597;40.636;0.278;2023-05-14T00:42:54;97210.34;;;17.81;46.61
56719;BME280;42597;40.636;0.278;2023-05-14T00:45:20;97217.34;;;17.39;46.24
56719;BME280;42597;40.636;0.278;2023-05-14T00:47:46;97206.78;;;18.19;47.35
56719;BME280;42597;40.636;0.278;2023-05-14T00:50:12;97196.28;;;17.57;46.25
56719;BME280;42597;40.636;0.278;2023-05-14T00:52:39;97205.59;;;17.27;45.58
56719;BME280;42597;40.636;0.278;2023-05-14T00:55:06;97184.56;;;17.46;47.38
56719;BME280;42597;40.636;0.278;2023-05-14T00:57:33;97188.44;;;17.48;46.84
56719;BME280;42597;40.636;0.278;2023-05-14T00:59:59;97194.88;;;16.58;49.63
56719;BME280;42597;40.636;0.278;2023-05-14T01:02:25;97188.47;;;17.95;46.56
56719;BME280;42597;40.636;0.278;2023-05-14T01:04:51;97186.88;;;17.22;47.27
56719;BME280;42597;40.636;0.278;2023-05-14T01:10:05;97181.44;;;17.44;49.26
56719;BME280;42597;40.636;0.278;2023-05-14T01:12:42;97160.72;;;17.93;47.17
56719;BME280;42597;40.636;0.278;2023-05-14T01:15:21;97165.06;;;17.65;46.60
56719;BME280;42597;40.636;0.278;2023-05-14T01:17:58;97165.81;;;17.48;47.44
56719;BME280;42597;40.636;0.278;2023-05-14T01:20:25;97179.84;;;17.32;48.10
56719;BME280;42597;40.636;0.278;2023-05-14T01:22:51;97170.09;;;17.24;49.72
56719;BME280;42597;40.636;0.278;2023-05-14T01:25:17;97170.13;;;17.63;49.08
56719;BME280;42597;40.636;0.278;2023-05-14T01:33:12;97168.19;;;17.85;46.94
56719;BME280;42597;40.636;0.278;2023-05-14T01:35:39;97186.91;;;17.65;47.19
56719;BME280;42597;40.636;0.278;2023-05-14T01:38:10;97189.63;;;17.22;48.07
56719;BME280;42597;40.636;0.278;2023-05-14T01:40:37;97179.88;;;17.39;49.22
56719;BME280;42597;40.636;0.278;2023-05-14T01:43:03;97181.03;;;17.13;50.03
56719;BME280;42597;40.636;0.278;2023-05-14T01:45:30;97168.94;;;17.64;48.23
56719;BME280;42597;40.636;0.278;2023-05-14T01:47:57;97185.34;;;17.64;48.14
56719;BME280;42597;40.636;0.278;2023-05-14T01:50:23;97180.97;;;16.85;47.85
56719;BME280;42597;40.636;0.278;2023-05-14T01:52:48;97167.38;;;17.35;50.16
56719;BME280;42597;40.636;0.278;2023-05-14T01:55:15;97174.81;;;17.38;49.12
56719;BME280;42597;40.636;0.278;2023-05-14T01:57:42;97182.59;;;17.18;48.09
56719;BME280;42597;40.636;0.278;2023-05-14T02:00:08;97178.72;;;17.65;49.86
56719;BME280;42597;40.636;0.278;2023-05-14T02:02:33;97190.78;;;17.93;47.10
56719;BME280;42597;40.636;0.278;2023-05-14T02:04:59;97176.34;;;17.24;50.48
56719;BME280;42597;40.636;0.278;2023-05-14T02:07:25;97184.28;;;16.46;49.00
56719;BME280;42597;40.636;0.278;2023-05-14T02:09:50;97192.25;;;16.87;48.16
56719;BME280;42597;40.636;0.278;2023-05-14T02:12:16;97191.09;;;16.91;49.35
56719;BME280;42597;40.636;0.278;2023-05-14T02:14:42;97169.59;;;16.68;48.93
56719;BME280;42597;40.636;0.278;2023-05-14T02:17:07;97184.16;;;17.72;48.16
56719;BME280;42597;40.636;0.278;2023-05-14T02:19:33;97196.53;;;16.84;50.77
56719;BME280;42597;40.636;0.278;2023-05-14T02:21:59;97196.13;;;16.78;49.08
56719;BME280;42597;40.636;0.278;2023-05-14T02:24:25;97211.84;;;17.17;49.77
56719;BME280;42597;40.636;0.278;2023-05-14T02:26:51;97182.59;;;17.64;49.31
56719;BME280;42597;40.636;0.278;2023-05-14T02:29:17;97189.03;;;16.63;49.21
56719;BME280;42597;40.636;0.278;2023-05-14T02:31:42;97196.94;;;16.86;49.84
56719;BME280;42597;40.636;0.278;2023-05-14T02:34:08;97205.94;;;16.97;49.75
56719;BME280;42597;40.636;0.278;2023-05-14T02:36:34;97193.88;;;17.09;50.61
56719;BME280;42597;40.636;0.278;2023-05-14T02:38:59;97189.19;;;17.20;49.46
56719;BME280;42597;40.636;0.278;2023-05-14T02:41:26;97175.69;;;16.44;51.22
56719;BME280;42597;40.636;0.278;2023-05-14T02:43:52;97187.41;;;16.48;51.48
56719;BME280;42597;40.636;0.278;2023-05-14T02:46:18;97183.00;;;17.38;50.31
56719;BME280;42597;40.636;0.278;2023-05-14T02:48:44;97185.28;;;17.07;48.66
56719;BME280;42597;40.636;0.278;2023-05-14T02:51:09;97186.03;;;16.86;49.78
56719;BME280;42597;40.636;0.278;2023-05-14T02:53:35;97181.38;;;17.12;49.89
56719;BME280;42597;40.636;0.278;2023-05-14T02:56:01;97174.63;;;16.66;50.38
56719;BME280;42597;40.636;0.278;2023-05-14T02:58:28;97170.84;;;16.89;49.04
56719;BME280;42597;40.636;0.278;2023-05-14T03:00:53;97173.53;;;16.78;50.61
56719;BME280;42597;40.636;0.278;2023-05-14T03:03:19;97163.38;;;16.75;50.80
56719;BME280;42597;40.636;0.278;2023-05-14T03:05:45;97164.59;;;16.95;49.96
56719;BME280;42597;40.636;0.278;2023-05-14T03:08:10;97160.75;;;17.21;50.81
56719;BME280;42597;40.636;0.278;2023-05-14T03:10:36;97167.75;;;17.01;50.51
56719;BME280;42597;40.636;0.278;2023-05-14T03:13:02;97169.69;;;17.11;49.58
56719;BME280;42597;40.636;0.278;2023-05-14T03:15:28;97164.03;;;16.47;51.24
56719;BME280;42597;40.636;0.278;2023-05-14T03:17:53;97162.72;;;17.53;48.17
56719;BME280;42597;40.636;0.278;2023-05-14T03:20:19;97168.06;;;15.98;52.08
56719;BME280;42597;40.636;0.278;2023-05-14T03:22:45;97174.34;;;16.93;50.20
56719;BME280;42597;40.636;0.278;2023-05-14T03:25:11;97172.03;;;17.02;50.57
56719;BME280;42597;40.636;0.278;2023-05-14T03:27:36;97158.38;;;16.98;50.69
56719;BME280;42597;40.636;0.278;2023-05-14T03:30:02;97169.56;;;16.61;50.77
56719;BME280;42597;40.636;0.278;2023-05-14T03:32:28;97169.47;;;16.43;50.44
56719;BME280;42597;40.636;0.278;2023-05-14T03:34:54;97164.22;;;16.90;50.02
56719;BME280;42597;40.636;0.278;2023-05-14T03:37:20;97164.25;;;17.47;50.15
56719;BME280;42597;40.636;0.278;2023-05-14T03:39:45;97167.38;;;17.95;49.10
56719;BME280;42597;40.636;0.278;2023-05-14T03:42:11;97172.75;;;16.77;49.85
56719;BME280;42597;40.636;0.278;2023-05-14T03:44:36;97169.25;;;16.81;50.96
56719;BME280;42597;40.636;0.278;2023-05-14T03:47:02;97166.53;;;16.88;51.91
56719;BME280;42597;40.636;0.278;2023-05-14T03:49:27;97169.66;;;16.90;50.02
56719;BME280;42597;40.636;0.278;2023-05-14T03:51:53;97172.75;;;16.74;52.80
56719;BME280;42597;40.636;0.278;2023-05-14T03:54:18;97159.59;;;17.26;50.53
56719;BME280;42597;40.636;0.278;2023-05-14T03:56:44;97166.97;;;17.11;50.67
56719;BME280;42597;40.636;0.278;2023-05-14T03:59:10;97171.13;;;16.66;51.44
56719;BME280;42597;40.636;0.278;2023-05-14T04:01:35;97169.69;;;16.93;49.78
56719;BME280;42597;40.636;0.278;2023-05-14T04:04:01;97178.66;;;16.10;51.71
56719;BME280;42597;40.636;0.278;2023-05-14T04:06:26;97175.81;;;16.69;51.53
56719;BME280;42597;40.636;0.278;2023-05-14T04:08:52;97183.66;;;16.77;50.85
56719;BME280;42597;40.636;0.278;2023-05-14T04:11:18;97191.44;;;16.75;51.45
56719;BME280;42597;40.636;0.278;2023-05-14T04:13:43;97173.03;;;16.58;51.51
56719;BME280;42597;40.636;0.278;2023-05-14T04:16:09;97184.16;;;17.22;51.20
56719;BME280;42597;40.636;0.278;2023-05-14T04:18:34;97184.53;;;17.10;50.55
56719;BME280;42597;40.636;0.278;2023-05-14T04:21:01;97178.22;;;16.88;51.26
56719;BME280;42597;40.636;0.278;2023-05-14T04:23:26;97196.13;;;16.78;50.79
56719;BME280;42597;40.636;0.278;2023-05-14T04:25:52;97190.63;;;16.71;50.69
56719;BME280;42597;40.636;0.278;2023-05-14T04:28:17;97185.91;;;16.61;51.86
56719;BME280;42597;40.636;0.278;2023-05-14T04:30:43;97187.25;;;16.12;51.43
56719;BME280;42597;40.636;0.278;2023-05-14T04:33:10;97187.25;;;17.07;52.11
56719;BME280;42597;40.636;0.278;2023-05-14T04:35:35;97203.25;;;17.15;49.61
56719;BME280;42597;40.636;0.278;2023-05-14T04:38:01;97183.28;;;16.86;49.72
56719;BME280;42597;40.636;0.278;2023-05-14T04:40:27;97192.34;;;17.22;50.87
56719;BME280;42597;40.636;0.278;2023-05-14T04:42:52;97196.63;;;16.18;53.24
56719;BME280;42597;40.636;0.278;2023-05-14T04:45:18;97193.06;;;16.94;50.64
56719;BME280;42597;40.636;0.278;2023-05-14T04:47:44;97206.97;;;16.68;51.32
56719;BME280;42597;40.636;0.278;2023-05-14T04:50:11;97193.09;;;17.12;50.20
56719;BME280;42597;40.636;0.278;2023-05-14T04:52:37;97203.13;;;16.72;51.86
56719;BME280;42597;40.636;0.278;2023-05-14T04:55:03;97194.31;;;17.47;50.06
56719;BME280;42597;40.636;0.278;2023-05-14T04:57:29;97200.13;;;17.10;50.43
56719;BME280;42597;40.636;0.278;2023-05-14T04:59:54;97197.69;;;16.80;51.04
56719;BME280;42597;40.636;0.278;2023-05-14T05:02:20;97212.31;;;16.43;52.22
56719;BME280;42597;40.636;0.278;2023-05-14T05:04:46;97207.56;;;17.34;50.56
56719;BME280;42597;40.636;0.278;2023-05-14T05:07:11;97201.16;;;16.69;52.09
56719;BME280;42597;40.636;0.278;2023-05-14T05:09:37;97202.47;;;17.18;51.18
56719;BME280;42597;40.636;0.278;2023-05-14T05:12:03;97206.00;;;16.24;52.11
56719;BME280;42597;40.636;0.278;2023-05-14T05:14:29;97206.00;;;16.24;53.02
56719;BME280;42597;40.636;0.278;2023-05-14T05:16:55;97207.56;;;16.25;52.96
56719;BME280;42597;40.636;0.278;2023-05-14T05:19:20;97217.88;;;16.61;52.36
56719;BME280;42597;40.636;0.278;2023-05-14T05:21:46;97206.09;;;16.46;52.32
56719;BME280;42597;40.636;0.278;2023-05-14T05:24:11;97200.69;;;16.60;51.75
56719;BME280;42597;40.636;0.278;2023-05-14T05:26:37;97194.00;;;16.36;52.72
56719;BME280;42597;40.636;0.278;2023-05-14T05:29:04;97203.94;;;16.87;51.29
56719;BME280;42597;40.636;0.278;2023-05-14T05:31:30;97203.59;;;16.89;51.79
56719;BME280;42597;40.636;0.278;2023-05-14T05:33:57;97199.50;;;16.50;51.70
56719;BME280;42597;40.636;0.278;2023-05-14T05:36:23;97208.69;;;17.05;51.29
56719;BME280;42597;40.636;0.278;2023-05-14T05:38:48;97209.47;;;17.01;50.60
56719;BME280;42597;40.636;0.278;2023-05-14T05:41:14;97205.59;;;17.10;51.10
56719;BME280;42597;40.636;0.278;2023-05-14T05:43:40;97199.34;;;17.23;49.72
56719;BME280;42597;40.636;0.278;2023-05-14T05:46:06;97206.81;;;16.28;52.32
56719;BME280;42597;40.636;0.278;2023-05-14T05:48:31;97213.34;;;16.97;50.97
56719;BME280;42597;40.636;0.278;2023-05-14T05:50:57;97219.50;;;16.72;50.44
56719;BME280;42597;40.636;0.278;2023-05-14T05:53:22;97220.13;;;16.44;51.39
56719;BME280;42597;40.636;0.278;2023-05-14T05:55:48;97211.03;;;17.06;50.54
56719;BME280;42597;40.636;0.278;2023-05-14T05:58:16;97209.47;;;17.16;50.22
56719;BME280;42597;40.636;0.278;2023-05-14T06:00:42;97221.25;;;17.38;50.14
56719;BME280;42597;40.636;0.278;2023-05-14T06:03:08;97223.06;;;16.91;50.73
56719;BME280;42597;40.636;0.278;2023-05-14T06:05:33;97232.47;;;17.08;50.04
56719;BME280;42597;40.636;0.278;2023-05-14T06:07:59;97229.28;;;16.81;50.29
56719;BME280;42597;40.636;0.278;2023-05-14T06:10:25;97230.47;;;16.87;51.65
56719;BME280;42597;40.636;0.278;2023-05-14T06:12:50;97240.03;;;17.79;48.73
56719;BME280;42597;40.636;0.278;2023-05-14T06:15:16;97220.91;;;17.86;48.40
56719;BME280;42597;40.636;0.278;2023-05-14T06:17:41;97229.81;;;17.68;49.12
56719;BME280;42597;40.636;0.278;2023-05-14T06:20:07;97255.69;;;16.66;50.91
56719;BME280;42597;40.636;0.278;2023-05-14T06:22:34;97237.91;;;17.04;50.19
56719;BME280;42597;40.636;0.278;2023-05-14T06:24:59;97235.25;;;17.18;50.62
56719;BME280;42597;40.636;0.278;2023-05-14T06:27:25;97236.06;;;17.30;50.14
56719;BME280;42597;40.636;0.278;2023-05-14T06:29:50;97240.31;;;17.27;49.78
56719;BME280;42597;40.636;0.278;2023-05-14T06:32:16;97242.56;;;16.89;49.89
56719;BME280;42597;40.636;0.278;2023-05-14T06:34:42;97243.88;;;17.56;49.67
56719;BME280;42597;40.636;0.278;2023-05-14T06:37:08;97236.06;;;17.72;48.25
56719;BME280;42597;40.636;0.278;2023-05-14T06:39:35;97239.97;;;17.64;49.02
56719;BME280;42597;40.636;0.278;2023-05-14T06:42:01;97254.38;;;17.40;49.05
56719;BME280;42597;40.636;0.278;2023-05-14T06:44:26;97255.56;;;17.35;49.71
56719;BME280;42597;40.636;0.278;2023-05-14T06:46:52;97248.47;;;17.16;49.27
56719;BME280;42597;40.636;0.278;2023-05-14T06:49:17;97259.41;;;17.09;49.83
56719;BME280;42597;40.636;0.278;2023-05-14T06:51:43;97244.63;;;17.32;49.55
56719;BME280;42597;40.636;0.278;2023-05-14T06:54:09;97244.66;;;17.46;48.90
56719;BME280;42597;40.636;0.278;2023-05-14T06:56:34;97248.56;;;17.52;48.93
56719;BME280;42597;40.636;0.278;2023-05-14T06:59:00;97254.88;;;17.78;48.02
56719;BME280;42597;40.636;0.278;2023-05-14T07:01:25;97258.00;;;17.94;48.18
56719;BME280;42597;40.636;0.278;2023-05-14T07:03:51;97259.09;;;17.61;48.71
56719;BME280;42597;40.636;0.278;2023-05-14T07:06:17;97267.28;;;17.50;48.62
56719;BME280;42597;40.636;0.278;2023-05-14T07:08:42;97252.91;;;17.89;47.94
56719;BME280;42597;40.636;0.278;2023-05-14T07:11:10;97266.50;;;17.60;48.53
56719;BME280;42597;40.636;0.278;2023-05-14T07:13:37;97282.16;;;17.74;47.59
56719;BME280;42597;40.636;0.278;2023-05-14T07:16:04;97264.16;;;17.51;48.65
56719;BME280;42597;40.636;0.278;2023-05-14T07:18:30;97268.09;;;18.33;46.86
56719;BME280;42597;40.636;0.278;2023-05-14T07:20:56;97261.47;;;18.19;46.84
56719;BME280;42597;40.636;0.278;2023-05-14T07:23:21;97272.75;;;18.54;45.94
56719;BME280;42597;40.636;0.278;2023-05-14T07:25:47;97263.38;;;17.40;48.33
56719;BME280;42597;40.636;0.278;2023-05-14T07:28:12;97264.94;;;17.56;48.81
56719;BME280;42597;40.636;0.278;2023-05-14T07:30:38;97276.25;;;17.40;47.92
56719;BME280;42597;40.636;0.278;2023-05-14T07:33:03;97266.56;;;17.74;47.35
56719;BME280;42597;40.636;0.278;2023-05-14T07:35:29;97261.06;;;18.21;46.56
56719;BME280;42597;40.636;0.278;2023-05-14T07:37:55;97261.09;;;18.17;46.45
56719;BME280;42597;40.636;0.278;2023-05-14T07:40:20;97256.78;;;18.27;46.01
56719;BME280;42597;40.636;0.278;2023-05-14T07:42:46;97257.88;;;18.65;45.66
56719;BME280;42597;40.636;0.278;2023-05-14T07:45:12;97258.50;;;19.05;45.10
56719;BME280;42597;40.636;0.278;2023-05-14T07:47:38;97270.47;;;18.02;46.97
56719;BME280;42597;40.636;0.278;2023-05-14T07:50:05;97268.13;;;18.18;46.29
56719;BME280;42597;40.636;0.278;2023-05-14T07:52:31;97274.34;;;17.65;46.51
56719;BME280;42597;40.636;0.278;2023-05-14T07:54:57;97268.13;;;18.04;45.95
56719;BME280;42597;40.636;0.278;2023-05-14T07:57:22;97261.84;;;18.29;45.96
56719;BME280;42597;40.636;0.278;2023-05-14T07:59:48;97263.31;;;18.72;45.40
56719;BME280;42597;40.636;0.278;2023-05-14T08:02:14;97271.94;;;18.53;44.90
56719;BME280;42597;40.636;0.278;2023-05-14T08:04:40;97264.06;;;18.91;44.86
56719;BME280;42597;40.636;0.278;2023-05-14T08:07:06;97267.25;;;18.71;44.95
56719;BME280;42597;40.636;0.278;2023-05-14T08:09:33;97259.34;;;18.95;44.61
56719;BME280;42597;40.636;0.278;2023-05-14T08:11:58;97272.69;;;18.86;44.39
56719;BME280;42597;40.636;0.278;2023-05-14T08:14:24;97266.47;;;18.74;44.85
56719;BME280;42597;40.636;0.278;2023-05-14T08:16:50;97259.38;;;18.88;44.65
56719;BME280;42597;40.636;0.278;2023-05-14T08:19:15;97272.31;;;18.73;44.24
56719;BME280;42597;40.636;0.278;2023-05-14T08:21:41;97255.84;;;18.87;44.32
56719;BME280;42597;40.636;0.278;2023-05-14T08:24:06;97252.34;;;18.83;44.07
56719;BME280;42597;40.636;0.278;2023-05-14T08:26:32;97247.50;;;19.12;43.85
56719;BME280;42597;40.636;0.278;2023-05-14T08:28:58;97246.72;;;19.15;44.13
56719;BME280;42597;40.636;0.278;2023-05-14T08:31:23;97252.22;;;19.08;43.67
56719;BME280;42597;40.636;0.278;2023-05-14T08:33:49;97262.25;;;19.40;42.65
56719;BME280;42597;40.636;0.278;2023-05-14T08:36:14;97256.88;;;19.22;43.53
56719;BME280;42597;40.636;0.278;2023-05-14T08:38:40;97253.72;;;19.23;42.68
56719;BME280;42597;40.636;0.278;2023-05-14T08:41:07;97264.34;;;19.77;42.27
56719;BME280;42597;40.636;0.278;2023-05-14T08:43:49;97256.78;;;19.33;41.55
56719;BME280;42597;40.636;0.278;2023-05-14T08:46:23;97253.50;;;19.59;42.80
56719;BME280;42597;40.636;0.278;2023-05-14T08:48:55;97251.25;;;19.47;42.15
56719;BME280;42597;40.636;0.278;2023-05-14T08:51:23;97251.22;;;19.51;41.62
56719;BME280;42597;40.636;0.278;2023-05-14T08:53:49;97269.56;;;19.57;42.42
56719;BME280;42597;40.636;0.278;2023-05-14T08:56:16;97265.13;;;19.78;42.05
56719;BME280;42597;40.636;0.278;2023-05-14T08:58:42;97266.63;;;19.86;41.93
56719;BME280;42597;40.636;0.278;2023-05-14T09:01:08;97260.38;;;19.22;42.27
56719;BME280;42597;40.636;0.278;2023-05-14T09:03:35;97259.66;;;19.78;42.41
56719;BME280;42597;40.636;0.278;2023-05-14T09:06:01;97267.59;;;19.61;41.72
56719;BME280;42597;40.636;0.278;2023-05-14T09:08:28;97272.19;;;19.79;41.49
56719;BME280;42597;40.636;0.278;2023-05-14T09:10:54;97262.00;;;19.79;41.04
56719;BME280;42597;40.636;0.278;2023-05-14T09:13:19;97262.72;;;19.87;41.91
56719;BME280;42597;40.636;0.278;2023-05-14T09:15:45;97266.53;;;20.00;41.62
56719;BME280;42597;40.636;0.278;2023-05-14T09:18:12;97248.38;;;19.68;41.88
56719;BME280;42597;40.636;0.278;2023-05-14T09:20:38;97257.84;;;20.05;40.66
56719;BME280;42597;40.636;0.278;2023-05-14T09:23:03;97250.72;;;20.18;41.06
56719;BME280;42597;40.636;0.278;2023-05-14T09:25:32;97260.97;;;20.11;40.91
56719;BME280;42597;40.636;0.278;2023-05-14T09:27:58;97262.84;;;20.17;41.07
56719;BME280;42597;40.636;0.278;2023-05-14T09:30:24;97259.34;;;20.13;41.47
56719;BME280;42597;40.636;0.278;2023-05-14T09:32:52;97258.47;;;20.27;41.26
56719;BME280;42597;40.636;0.278;2023-05-14T09:35:20;97259.22;;;20.28;40.61
56719;BME280;42597;40.636;0.278;2023-05-14T09:37:51;97252.19;;;20.27;40.90
56719;BME280;42597;40.636;0.278;2023-05-14T09:40:19;97255.78;;;20.20;40.73
56719;BME280;42597;40.636;0.278;2023-05-14T09:42:45;97271.63;;;20.43;39.70
56719;BME280;42597;40.636;0.278;2023-05-14T09:45:12;97261.22;;;20.24;40.23
56719;BME280;42597;40.636;0.278;2023-05-14T09:47:38;97261.63;;;20.22;39.28
56719;BME280;42597;40.636;0.278;2023-05-14T09:50:04;97262.53;;;20.08;39.10
56719;BME280;42597;40.636;0.278;2023-05-14T09:52:31;97261.41;;;20.47;39.46
56719;BME280;42597;40.636;0.278;2023-05-14T09:54:56;97263.75;;;20.45;40.24
56719;BME280;42597;40.636;0.278;2023-05-14T09:57:22;97264.38;;;20.63;39.96
56719;BME280;42597;40.636;0.278;2023-05-14T09:59:48;97258.56;;;20.58;39.50
56719;BME280;42597;40.636;0.278;2023-05-14T10:04:56;97273.72;;;20.69;39.56
56719;BME280;42597;40.636;0.278;2023-05-14T10:07:32;97270.78;;;20.50;39.41
56719;BME280;42597;40.636;0.278;2023-05-14T10:10:06;97272.91;;;20.73;38.89
56719;BME280;42597;40.636;0.278;2023-05-14T10:12:35;97259.16;;;20.76;38.35
56719;BME280;42597;40.636;0.278;2023-05-14T10:15:08;97263.97;;;20.65;38.76
56719;BME280;42597;40.636;0.278;2023-05-14T10:17:39;97261.47;;;20.78;39.41
56719;BME280;42597;40.636;0.278;2023-05-14T10:20:06;97261.84;;;20.80;38.83
56719;BME280;42597;40.636;0.278;2023-05-14T10:22:33;97269.28;;;20.83;39.59
56719;BME280;42597;40.636;0.278;2023-05-14T10:25:01;97261.78;;;20.87;38.35
56719;BME280;42597;40.636;0.278;2023-05-14T10:27:27;97264.88;;;20.89;37.61
56719;BME280;42597;40.636;0.278;2023-05-14T10:29:54;97265.97;;;20.61;37.91
56719;BME280;42597;40.636;0.278;2023-05-14T10:32:24;97262.53;;;20.87;38.34
56719;BME280;42597;40.636;0.278;2023-05-14T10:34:51;97258.06;;;21.01;38.51
56719;BME280;42597;40.636;0.278;2023-05-14T10:37:20;97255.41;;;20.93;38.25
56719;BME280;42597;40.636;0.278;2023-05-14T10:40:07;97257.38;;;20.93;38.16
56719;BME280;42597;40.636;0.278;2023-05-14T10:42:34;97260.88;;;20.93;37.13
56719;BME280;42597;40.636;0.278;2023-05-14T10:45:06;97254.66;;;21.20;37.97
56719;BME280;42597;40.636;0.278;2023-05-14T10:47:37;97249.03;;;21.00;37.14
56719;BME280;42597;40.636;0.278;2023-05-14T10:50:05;97250.31;;;21.23;37.31
56719;BME280;42597;40.636;0.278;2023-05-14T10:52:32;97252.34;;;20.88;36.46
56719;BME280;42597;40.636;0.278;2023-05-14T10:55:01;97254.75;;;21.13;36.30
56719;BME280;42597;40.636;0.278;2023-05-14T10:57:29;97246.00;;;21.22;37.50
56719;BME280;42597;40.636;0.278;2023-05-14T10:59:56;97244.06;;;21.18;38.04
56719;BME280;42597;40.636;0.278;2023-05-14T11:02:33;97247.88;;;21.28;35.21
56719;BME280;42597;40.636;0.278;2023-05-14T11:07:37;97242.34;;;21.32;37.18
56719;BME280;42597;40.636;0.278;2023-05-14T11:10:12;97226.44;;;21.47;37.29
56719;BME280;42597;40.636;0.278;2023-05-14T11:12:41;97229.72;;;21.38;36.78
56719;BME280;42597;40.636;0.278;2023-05-14T11:15:08;97228.84;;;21.44;36.11
56719;BME280;42597;40.636;0.278;2023-05-14T11:17:35;97227.38;;;21.36;35.51
56719;BME280;42597;40.636;0.278;2023-05-14T11:20:02;97236.78;;;21.39;36.61
56719;BME280;42597;40.636;0.278;2023-05-14T11:22:29;97226.69;;;21.29;37.20
56719;BME280;42597;40.636;0.278;2023-05-14T11:24:55;97224.75;;;21.26;36.04
56719;BME280;42597;40.636;0.278;2023-05-14T11:30:42;97216.50;;;21.26;37.08
56719;BME280;42597;40.636;0.278;2023-05-14T11:33:08;97219.34;;;21.49;36.88
56719;BME280;42597;40.636;0.278;2023-05-14T11:35:34;97213.72;;;21.56;35.49
56719;BME280;42597;40.636;0.278;2023-05-14T11:38:01;97213.63;;;21.63;35.50
56719;BME280;42597;40.636;0.278;2023-05-14T11:40:26;97208.56;;;21.35;34.73
56719;BME280;42597;40.636;0.278;2023-05-14T11:42:52;97205.59;;;21.49;36.19
56719;BME280;42597;40.636;0.278;2023-05-14T11:45:25;97205.28;;;21.43;35.42
56719;BME280;42597;40.636;0.278;2023-05-14T11:47:52;97207.81;;;21.31;34.78
56719;BME280;42597;40.636;0.278;2023-05-14T11:50:23;97202.59;;;21.40;37.11
56719;BME280;42597;40.636;0.278;2023-05-14T11:52:49;97204.66;;;21.32;36.14
56719;BME280;42597;40.636;0.278;2023-05-14T11:55:15;97200.66;;;21.37;36.32
56719;BME280;42597;40.636;0.278;2023-05-14T11:57:42;97197.59;;;21.31;34.67
56719;BME280;42597;40.636;0.278;2023-05-14T12:00:11;97195.84;;;21.44;36.12
56719;BME280;42597;40.636;0.278;2023-05-14T12:02:38;97187.44;;;21.28;37.23
56719;BME280;42597;40.636;0.278;2023-05-14T12:05:04;97191.59;;;21.40;36.86
56719;BME280;42597;40.636;0.278;2023-05-14T12:07:35;97191.69;;;21.33;35.82
56719;BME280;42597;40.636;0.278;2023-05-14T12:10:02;97190.41;;;21.41;36.96
56719;BME280;42597;40.636;0.278;2023-05-14T12:12:34;97197.41;;;21.46;34.46
56719;BME280;42597;40.636;0.278;2023-05-14T12:15:00;97191.84;;;21.49;35.99
56719;BME280;42597;40.636;0.278;2023-05-14T12:17:25;97188.13;;;21.36;36.20
56719;BME280;42597;40.636;0.278;2023-05-14T12:19:51;97197.44;;;21.42;34.69
56719;BME280;42597;40.636;0.278;2023-05-14T12:22:22;97187.69;;;21.64;35.22
56719;BME280;42597;40.636;0.278;2023-05-14T12:24:58;97197.13;;;21.87;34.02
56719;BME280;42597;40.636;0.278;2023-05-14T12:27:26;97173.22;;;21.84;33.91
56719;BME280;42597;40.636;0.278;2023-05-14T12:30:02;97179.31;;;21.72;34.97
56719;BME280;42597;40.636;0.278;2023-05-14T12:32:32;97188.44;;;21.41;34.03
56719;BME280;42597;40.636;0.278;2023-05-14T12:34:58;97179.19;;;21.55;35.21
56719;BME280;42597;40.636;0.278;2023-05-14T12:37:25;97184.69;;;21.55;35.54
56719;BME280;42597;40.636;0.278;2023-05-14T12:39:51;97175.19;;;21.60;34.53
56719;BME280;42597;40.636;0.278;2023-05-14T12:42:17;97170.94;;;21.55;33.55
56719;BME280;42597;40.636;0.278;2023-05-14T12:44:42;97170.69;;;21.46;33.24
56719;BME280;42597;40.636;0.278;2023-05-14T12:47:08;97165.22;;;21.42;33.15
56719;BME280;42597;40.636;0.278;2023-05-14T12:49:33;97154.44;;;21.79;33.06
56719;BME280;42597;40.636;0.278;2023-05-14T12:51:59;97155.53;;;22.05;34.40
56719;BME280;42597;40.636;0.278;2023-05-14T12:54:25;97152.03;;;22.04;32.61
56719;BME280;42597;40.636;0.278;2023-05-14T12:56:50;97154.25;;;22.33;32.13
56719;BME280;42597;40.636;0.278;2023-05-14T12:59:16;97154.38;;;22.26;33.30
56719;BME280;42597;40.636;0.278;2023-05-14T13:01:41;97153.34;;;21.96;32.76
56719;BME280;42597;40.636;0.278;2023-05-14T13:04:09;97154.91;;;21.97;34.32
56719;BME280;42597;40.636;0.278;2023-05-14T13:06:37;97160.59;;;21.86;33.05
56719;BME280;42597;40.636;0.278;2023-05-14T13:09:03;97152.38;;;21.63;32.67
56719;BME280;42597;40.636;0.278;2023-05-14T13:11:29;97156.41;;;21.78;35.95
56719;BME280;42597;40.636;0.278;2023-05-14T13:13:57;97150.97;;;21.75;35.21